createdAt,value
2024-03-28T05:14:23.722Z,99.99
2024-03-28T05:15:23.678Z,99.99
2024-03-28T05:16:23.709Z,99.99
2024-03-28T05:17:23.670Z,99.99
2024-03-28T05:18:23.647Z,99.99
2024-03-28T05:19:23.669Z,99.99
2024-03-28T05:20:23.628Z,99.99
2024-03-28T05:22:23.640Z,99.99
2024-03-28T05:23:23.598Z,99.99
2024-03-28T05:24:23.588Z,99.99
2024-03-28T05:25:23.801Z,99.99
2024-03-28T05:26:23.572Z,99.99
2024-03-28T05:27:28.554Z,99.99
2024-03-28T05:28:23.563Z,99.99
2024-03-28T05:29:23.544Z,99.99
2024-03-28T05:30:23.532Z,99.99
2024-03-28T05:31:23.532Z,99.99
2024-03-28T05:32:23.561Z,99.99
2024-03-28T05:33:23.510Z,99.99
2024-03-28T05:34:23.603Z,99.99
2024-03-28T05:35:23.486Z,99.99
2024-03-28T05:36:23.490Z,99.99
2024-03-28T05:37:23.490Z,99.99
2024-03-28T05:38:23.462Z,99.99
2024-03-28T05:39:23.450Z,99.99
2024-03-28T05:40:23.434Z,99.99
2024-03-28T05:41:23.430Z,99.99
2024-03-28T05:42:26.409Z,99.99
2024-03-28T05:43:23.406Z,99.99
2024-03-28T05:44:23.396Z,99.99
2024-03-28T05:45:23.381Z,99.99
2024-03-28T05:46:23.431Z,99.99
2024-03-28T05:47:23.383Z,99.99
2024-03-28T05:48:23.388Z,99.99
2024-03-28T05:49:23.379Z,99.99
2024-03-28T05:50:23.338Z,99.99
2024-03-28T05:51:23.318Z,99.99
2024-03-28T05:53:23.329Z,99.99
2024-03-28T05:54:23.304Z,99.99
2024-03-28T05:55:23.320Z,99.99
2024-03-28T05:56:23.285Z,99.99
2024-03-28T05:57:26.279Z,99.99
2024-03-28T05:58:23.268Z,99.99
2024-03-28T05:59:23.244Z,99.99
2024-03-28T06:00:23.259Z,99.99
2024-03-28T06:01:23.217Z,99.99
2024-03-28T06:02:23.210Z,99.99
2024-03-28T06:03:25.858Z,99.99
2024-03-28T06:04:23.206Z,99.99
2024-03-28T06:05:23.188Z,99.99
2024-03-28T06:06:23.184Z,99.99
2024-03-28T06:07:23.170Z,99.99
2024-03-28T06:08:23.161Z,99.99
2024-03-28T06:09:23.165Z,99.99
2024-03-28T06:10:23.163Z,99.99
2024-03-28T06:11:23.142Z,99.99
2024-03-28T06:12:26.124Z,99.99
2024-03-28T06:13:23.138Z,99.99
2024-03-28T06:14:23.105Z,99.99
2024-03-28T06:15:23.101Z,99.99
2024-03-28T06:16:23.081Z,99.99
2024-03-28T06:17:23.072Z,99.99
2024-03-28T06:18:23.087Z,99.99
2024-03-28T06:19:23.054Z,99.99
2024-03-28T06:20:23.213Z,99.99
2024-03-28T06:21:23.030Z,99.99
2024-03-28T06:22:25.200Z,99.99
2024-03-28T06:23:23.010Z,99.99
2024-03-28T06:24:23.017Z,99.99
2024-03-28T06:25:23.057Z,99.99
2024-03-28T06:26:22.983Z,99.99
2024-03-28T06:27:25.973Z,99.99
2024-03-28T06:28:22.985Z,99.99
2024-03-28T06:29:22.953Z,99.99
2024-03-28T06:31:22.995Z,99.99
2024-03-28T06:32:22.954Z,99.99
2024-03-28T06:33:22.918Z,99.99
2024-03-28T06:34:22.906Z,99.99
2024-03-28T06:35:22.898Z,99.99
2024-03-28T06:36:22.881Z,99.99
2024-03-28T06:37:22.898Z,99.99
2024-03-28T06:38:22.877Z,99.99
2024-03-28T06:39:22.856Z,99.99
2024-03-28T06:40:22.855Z,99.99
2024-03-28T06:41:22.833Z,99.99
2024-03-28T06:42:25.851Z,99.99
2024-03-28T06:43:22.844Z,99.99
2024-03-28T06:44:22.808Z,99.99
2024-03-28T06:45:22.786Z,99.99
2024-03-28T06:46:22.837Z,99.99
2024-03-28T06:47:22.775Z,99.99
2024-03-28T06:48:22.782Z,99.99
2024-03-28T06:49:22.795Z,99.99
2024-03-28T06:51:22.739Z,99.99
2024-03-28T06:52:22.724Z,99.99
2024-03-28T06:53:22.735Z,99.99
2024-03-28T06:54:22.701Z,99.99
2024-03-28T06:55:22.695Z,99.99
2024-03-28T06:56:22.693Z,99.99
2024-03-28T06:57:25.714Z,99.99
2024-03-28T06:58:22.723Z,99.99
2024-03-28T06:59:22.648Z,99.99
2024-03-28T07:00:22.642Z,99.99
2024-03-28T07:01:22.634Z,99.99
2024-03-28T07:02:22.613Z,99.99
2024-03-28T07:03:22.609Z,99.99
2024-03-28T07:04:22.597Z,99.99
2024-03-28T07:05:22.582Z,99.99
2024-03-28T07:07:22.643Z,99.99
2024-03-28T07:08:22.546Z,99.99
2024-03-28T07:09:22.571Z,99.99
2024-03-28T07:10:22.544Z,99.99
2024-03-28T07:11:22.518Z,99.99
2024-03-28T07:12:25.510Z,99.99
2024-03-28T07:13:22.505Z,99.99
2024-03-28T07:14:22.534Z,99.99
2024-03-28T07:15:22.480Z,99.99
2024-03-28T07:16:22.467Z,99.99
2024-03-28T07:17:22.455Z,99.99
2024-03-28T07:18:22.441Z,99.99
2024-03-28T07:19:22.463Z,99.99
2024-03-28T07:20:22.424Z,99.99
2024-03-28T07:21:22.436Z,99.99
2024-03-28T07:22:22.402Z,99.99
2024-03-28T07:23:22.422Z,99.99
2024-03-28T07:24:22.385Z,99.99
2024-03-28T07:25:22.404Z,99.99
2024-03-28T07:26:22.374Z,99.99
2024-03-28T07:27:25.354Z,99.99
2024-03-28T07:28:22.340Z,99.99
2024-03-28T07:29:22.327Z,99.99
2024-03-28T07:30:22.331Z,99.99
2024-03-28T07:31:22.307Z,99.99
2024-03-28T07:32:22.299Z,99.99
2024-03-28T07:33:22.319Z,99.99
2024-03-28T07:34:22.276Z,99.99
2024-03-28T07:35:23.867Z,99.99
2024-03-28T07:36:22.266Z,99.99
2024-03-28T07:37:22.248Z,99.99
2024-03-28T07:38:22.226Z,99.99
2024-03-28T07:39:22.235Z,99.99
2024-03-28T07:40:22.218Z,99.99
2024-03-28T07:41:22.214Z,99.99
2024-03-28T07:46:44.206Z,99.99
2024-03-28T07:47:52.660Z,99.99
2024-03-28T08:18:08.031Z,99.99
2024-03-28T08:21:24.041Z,99.99
2024-03-28T08:22:24.003Z,99.99
2024-03-28T08:23:24.051Z,99.99
2024-03-28T08:24:23.988Z,99.99
2024-03-28T08:25:23.978Z,99.99
2024-03-28T08:26:23.971Z,99.99
2024-03-28T08:27:23.954Z,99.99
2024-03-28T08:28:23.963Z,99.99
2024-03-28T08:29:23.935Z,99.99
2024-03-28T08:30:26.098Z,99.99
2024-03-28T08:32:23.903Z,99.99
2024-03-28T08:33:23.893Z,99.99
2024-03-28T08:34:26.899Z,99.99
2024-03-28T08:35:23.879Z,99.99
2024-03-28T08:36:23.869Z,99.99
2024-03-28T08:37:23.872Z,99.99
2024-03-28T08:38:23.849Z,99.99
2024-03-28T08:39:23.840Z,99.99
2024-03-28T08:40:28.934Z,99.99
2024-03-28T08:41:23.902Z,99.99
2024-03-28T08:42:23.806Z,99.99
2024-03-28T08:43:23.807Z,99.99
2024-03-28T08:44:23.778Z,99.99
2024-03-28T08:45:23.771Z,99.99
2024-03-28T08:46:23.755Z,99.99
2024-03-28T08:47:23.799Z,99.99
2024-03-28T08:48:23.748Z,99.99
2024-03-28T08:49:26.777Z,99.99
2024-03-28T08:50:23.718Z,99.99
2024-03-28T08:51:23.734Z,99.99
2024-03-28T08:52:23.698Z,99.99
2024-03-28T08:53:23.696Z,99.99
2024-03-28T08:54:23.681Z,99.99
2024-03-28T08:55:23.686Z,99.99
2024-03-28T08:56:23.658Z,99.99
2024-03-28T08:57:23.658Z,99.99
2024-03-28T08:58:23.639Z,99.99
2024-03-28T08:59:23.635Z,99.99
2024-03-28T09:00:23.623Z,99.99
2024-03-28T09:01:23.613Z,99.99
2024-03-28T09:02:23.633Z,99.99
2024-03-28T09:03:23.607Z,99.99
2024-03-28T09:04:26.605Z,99.99
2024-03-28T09:05:23.574Z,99.99
2024-03-28T09:06:23.574Z,99.99
2024-03-28T09:07:23.550Z,99.99
2024-03-28T09:08:23.535Z,99.99
2024-03-28T09:09:23.537Z,99.99
2024-03-28T09:10:23.538Z,99.99
2024-03-28T09:11:23.502Z,99.99
2024-03-28T09:12:23.502Z,99.99
2024-03-28T09:13:23.662Z,99.99
2024-03-28T09:14:23.476Z,99.99
2024-03-28T09:15:23.464Z,99.99
2024-03-28T09:16:23.450Z,99.99
2024-03-28T09:17:23.434Z,99.99
2024-03-28T09:18:23.427Z,99.99
2024-03-28T09:19:26.422Z,99.99
2024-03-28T09:21:23.400Z,99.99
2024-03-28T09:22:23.386Z,99.99
2024-03-28T09:23:23.385Z,99.99
2024-03-28T09:24:23.395Z,99.99
2024-03-28T09:26:23.350Z,99.99
2024-03-28T09:27:23.370Z,99.99
2024-03-28T09:28:23.325Z,99.99
2024-03-28T09:29:23.351Z,99.99
2024-03-28T09:30:23.312Z,99.99
2024-03-28T09:31:23.313Z,99.99
2024-03-28T09:32:23.295Z,99.99
2024-03-28T09:33:23.278Z,99.99
2024-03-28T09:34:26.265Z,99.99
2024-03-28T09:36:23.731Z,99.99
2024-03-28T09:37:23.236Z,98.82
2024-03-28T09:38:23.231Z,97.88
2024-03-28T09:39:23.218Z,97.88
2024-03-28T09:41:23.193Z,98.50
2024-03-28T09:42:23.179Z,98.82
2024-03-28T09:43:23.175Z,97.26
2024-03-28T09:44:23.165Z,96.75
2024-03-28T09:45:23.164Z,97.26
2024-03-28T09:46:23.145Z,97.47
2024-03-28T09:47:23.149Z,98.61
2024-03-28T09:49:34.083Z,98.71
2024-03-28T09:50:23.104Z,97.47
2024-03-28T09:51:23.090Z,98.09
2024-03-28T09:52:23.099Z,98.40
2024-03-28T09:53:23.141Z,98.61
2024-03-28T09:54:23.074Z,97.88
2024-03-28T09:55:23.075Z,97.47
2024-03-28T09:56:23.054Z,97.78
2024-03-28T09:57:23.074Z,98.19
2024-03-28T09:58:23.020Z,98.61
2024-03-28T09:59:23.006Z,98.40
2024-03-28T10:00:23.012Z,98.30
2024-03-28T10:01:22.990Z,98.71
2024-03-28T10:02:22.981Z,99.02
2024-03-28T10:03:22.964Z,99.13
2024-03-28T10:04:26.433Z,99.23
2024-03-28T10:05:22.963Z,99.33
2024-03-28T10:06:22.976Z,98.92
2024-03-28T10:07:22.930Z,99.23
2024-03-28T10:08:22.914Z,99.43
2024-03-28T10:09:22.917Z,98.50
2024-03-28T10:10:22.896Z,98.61
2024-03-28T10:11:22.894Z,98.40
2024-03-28T10:12:22.875Z,98.09
2024-03-28T10:13:22.862Z,98.40
2024-03-28T10:14:22.865Z,98.82
2024-03-28T10:15:22.851Z,99.02
2024-03-28T10:16:22.853Z,99.13
2024-03-28T10:17:22.890Z,99.23
2024-03-28T10:18:22.847Z,99.43
2024-03-28T10:19:25.812Z,99.33
2024-03-28T10:20:23.787Z,99.54
2024-03-28T10:21:22.812Z,99.85
2024-03-28T10:22:22.770Z,99.85
2024-03-28T10:23:22.759Z,99.99
2024-03-28T10:24:22.756Z,99.99
2024-03-28T10:25:22.740Z,99.99
2024-03-28T10:26:22.753Z,99.13
2024-03-28T10:27:25.476Z,98.61
2024-03-28T10:28:22.702Z,97.88
2024-03-28T10:29:22.717Z,98.50
2024-03-28T10:30:22.686Z,98.61
2024-03-28T10:31:22.695Z,98.82
2024-03-28T10:32:22.664Z,98.71
2024-03-28T10:33:22.671Z,99.08
2024-03-28T10:34:25.645Z,99.08
2024-03-28T10:36:22.621Z,99.99
2024-03-28T10:37:23.526Z,99.96
2024-03-28T10:38:23.638Z,99.99
2024-03-28T10:39:22.598Z,99.76
2024-03-28T10:40:22.581Z,98.41
2024-03-28T10:41:22.572Z,98.10
2024-03-28T10:42:22.604Z,98.16
2024-03-28T10:43:24.281Z,97.96
2024-03-28T10:44:22.552Z,96.41
2024-03-28T10:45:22.525Z,95.99
2024-03-28T10:46:22.535Z,96.15
2024-03-28T10:47:22.564Z,95.43
2024-03-28T10:49:25.500Z,94.60
2024-03-28T10:50:22.480Z,94.77
2024-03-28T10:51:22.487Z,95.18
2024-03-28T10:52:22.469Z,95.18
2024-03-28T10:54:23.490Z,94.25
2024-03-28T10:55:22.426Z,93.63
2024-03-28T10:56:22.413Z,94.31
2024-03-28T10:57:22.412Z,94.82
2024-03-28T10:58:22.572Z,94.62
2024-03-28T10:59:22.424Z,94.10
2024-03-28T11:00:22.429Z,95.03
2024-03-28T11:02:22.360Z,95.03
2024-03-28T11:03:22.341Z,94.62
2024-03-28T11:04:25.330Z,94.93
2024-03-28T11:05:22.345Z,94.82
2024-03-28T11:06:22.319Z,95.96
2024-03-28T11:07:22.297Z,95.76
2024-03-28T11:08:22.293Z,95.96
2024-03-28T11:09:22.324Z,95.96
2024-03-28T11:10:22.274Z,96.21
2024-03-28T11:11:22.256Z,96.83
2024-03-28T11:12:22.255Z,97.34
2024-03-28T11:13:23.857Z,97.41
2024-03-28T11:14:22.239Z,97.20
2024-03-28T11:15:22.226Z,97.25
2024-03-28T11:16:22.216Z,96.62
2024-03-28T11:17:22.201Z,97.14
2024-03-28T11:18:22.189Z,97.04
2024-03-28T11:19:25.176Z,97.25
2024-03-28T11:20:22.172Z,97.66
2024-03-28T11:21:22.158Z,97.20
2024-03-28T11:22:22.145Z,96.17
2024-03-28T11:23:22.138Z,96.37
2024-03-28T11:24:22.127Z,96.27
2024-03-28T11:25:22.326Z,96.06
2024-03-28T11:26:22.113Z,94.82
2024-03-28T11:27:24.308Z,93.18
2024-03-28T11:28:22.084Z,93.65
2024-03-28T11:29:22.078Z,93.24
2024-03-28T11:30:22.061Z,92.00
2024-03-28T11:31:22.071Z,92.61
2024-03-28T11:32:22.055Z,91.48
2024-03-28T11:33:22.034Z,90.66
2024-03-28T11:34:25.025Z,91.28
2024-03-28T11:35:22.027Z,92.10
2024-03-28T11:36:22.037Z,92.61
2024-03-28T11:37:22.007Z,92.57
2024-03-28T11:38:21.978Z,92.37
2024-03-28T11:40:22.427Z,91.96
2024-03-28T11:41:21.948Z,92.16
2024-03-28T11:43:22.932Z,92.63
2024-03-28T11:44:21.926Z,92.33
2024-03-28T11:45:21.923Z,91.71
2024-03-28T11:46:21.896Z,91.40
2024-03-28T11:47:21.919Z,91.81
2024-03-28T11:48:21.880Z,91.77
2024-03-28T11:49:24.861Z,91.66
2024-03-28T11:50:25.666Z,90.84
2024-03-28T11:51:21.841Z,90.64
2024-03-28T11:53:21.834Z,90.64
2024-03-28T11:54:21.809Z,90.53
2024-03-28T11:55:21.801Z,90.49
2024-03-28T11:56:21.789Z,90.80
2024-03-28T11:57:21.788Z,90.69
2024-03-28T11:58:22.442Z,90.80
2024-03-28T11:59:21.766Z,89.77
2024-03-28T12:01:21.743Z,89.05
2024-03-28T12:02:21.731Z,89.67
2024-03-28T12:03:21.729Z,89.46
2024-03-28T12:04:24.705Z,89.25
2024-03-28T12:05:21.711Z,89.67
2024-03-28T12:06:21.687Z,89.46
2024-03-28T12:07:21.680Z,88.33
2024-03-28T12:08:22.078Z,88.84
2024-03-28T12:09:21.656Z,88.95
2024-03-28T12:10:21.643Z,89.15
2024-03-28T12:11:21.661Z,89.62
2024-03-28T12:12:21.639Z,89.94
2024-03-28T12:13:21.615Z,89.31
2024-03-28T12:14:21.650Z,89.17
2024-03-28T12:16:21.596Z,88.72
2024-03-28T12:17:21.566Z,89.60
2024-03-28T12:18:21.578Z,86.83
2024-03-28T12:19:24.556Z,85.49
2024-03-28T12:21:21.554Z,86.38
2024-03-28T12:23:21.557Z,85.11
2024-03-28T12:24:21.496Z,83.36
2024-03-28T12:25:21.511Z,83.12
2024-03-28T12:26:23.771Z,82.29
2024-03-28T12:28:21.458Z,82.97
2024-03-28T12:29:21.466Z,83.39
2024-03-28T12:31:21.429Z,84.10
2024-03-28T12:32:21.434Z,82.67
2024-03-28T12:33:21.461Z,82.26
2024-03-28T12:34:24.401Z,82.15
2024-03-28T12:35:21.583Z,81.29
2024-03-28T12:36:29.159Z,81.50
2024-03-28T12:38:21.350Z,79.80
2024-03-28T12:39:21.338Z,78.46
2024-03-28T12:41:21.321Z,79.04
2024-03-28T12:43:21.300Z,78.94
2024-03-28T12:44:21.282Z,78.53
2024-03-28T12:45:24.424Z,76.99
2024-03-28T12:46:21.261Z,76.37
2024-03-28T12:48:21.246Z,75.82
2024-03-28T12:49:24.234Z,75.21
2024-03-28T12:51:21.237Z,74.70
2024-03-28T12:52:21.203Z,76.34
2024-03-28T12:53:21.207Z,75.21
2024-03-28T12:54:21.195Z,76.40
2024-03-28T12:56:21.161Z,76.72
2024-03-28T12:57:21.157Z,77.39
2024-03-28T12:58:21.139Z,75.14
2024-03-28T12:59:21.152Z,73.71
2024-03-28T13:01:21.110Z,73.40
2024-03-28T13:02:21.148Z,72.82
2024-03-28T13:03:21.096Z,73.13
2024-03-28T13:04:24.077Z,74.05
2024-03-28T13:05:21.079Z,75.38
2024-03-28T13:06:21.066Z,72.41
2024-03-28T13:07:21.059Z,72.99
2024-03-28T13:08:21.035Z,74.63
2024-03-28T13:09:21.029Z,74.63
2024-03-28T13:11:21.007Z,73.10
2024-03-28T13:12:21.001Z,73.91
2024-03-28T13:13:21.004Z,73.78
2024-03-28T13:14:20.973Z,71.22
2024-03-28T13:15:20.960Z,71.83
2024-03-28T13:16:20.981Z,73.68
2024-03-28T13:17:20.937Z,72.72
2024-03-28T13:18:20.932Z,71.59
2024-03-28T13:19:23.926Z,72.17
2024-03-28T13:21:20.925Z,72.62
2024-03-28T13:22:20.891Z,72.21
2024-03-28T13:24:20.874Z,68.74
2024-03-28T13:25:20.854Z,70.75
2024-03-28T13:26:33.717Z,70.51
2024-03-28T13:27:38.252Z,70.61
2024-03-28T13:28:21.823Z,70.68
2024-03-28T13:29:20.813Z,69.25
2024-03-28T13:31:20.790Z,67.21
2024-03-28T13:32:20.953Z,67.69
2024-03-28T13:34:23.755Z,65.72
2024-03-28T13:35:20.756Z,65.01
2024-03-28T13:36:20.759Z,65.08
2024-03-28T13:37:20.736Z,63.65
2024-03-28T13:39:20.726Z,62.61
2024-03-28T13:40:21.686Z,62.63
2024-03-28T13:41:20.793Z,64.40
2024-03-28T13:42:20.676Z,63.92
2024-03-28T13:43:20.718Z,64.32
2024-03-28T13:44:20.712Z,63.10
2024-03-28T13:45:20.649Z,63.71
2024-03-28T13:46:23.231Z,63.99
2024-03-28T13:47:20.628Z,64.78
2024-03-28T13:48:20.619Z,63.65
2024-03-28T13:49:23.617Z,63.93
2024-03-28T13:50:20.610Z,63.83
2024-03-28T13:51:20.586Z,62.30
2024-03-28T13:52:23.910Z,60.27
2024-03-28T13:54:20.598Z,57.08
2024-03-28T13:55:20.538Z,57.69
2024-03-28T13:56:20.527Z,55.66
2024-03-28T13:57:20.511Z,55.55
2024-03-28T13:59:20.520Z,56.27
2024-03-28T14:00:20.484Z,56.47
2024-03-28T14:01:20.474Z,56.20
2024-03-28T14:02:20.492Z,58.03
2024-03-28T14:03:20.452Z,57.18
2024-03-28T14:04:23.438Z,57.31
2024-03-28T14:05:20.447Z,56.50
2024-03-28T14:06:20.460Z,55.20
2024-03-28T14:07:20.416Z,55.20
2024-03-28T14:08:20.411Z,56.32
2024-03-28T14:10:20.394Z,56.47
2024-03-28T14:11:20.377Z,54.13
2024-03-28T14:13:20.350Z,54.74
2024-03-28T14:15:20.328Z,53.37
2024-03-28T14:16:20.321Z,54.11
2024-03-28T14:17:20.497Z,54.61
2024-03-28T14:18:20.298Z,55.51
2024-03-28T14:19:23.288Z,54.82
2024-03-28T14:20:20.294Z,54.61
2024-03-28T14:21:20.269Z,54.39
2024-03-28T14:22:20.263Z,52.86
2024-03-28T14:23:20.247Z,50.92
2024-03-28T14:25:20.243Z,52.02
2024-03-28T14:27:20.204Z,51.10
2024-03-28T14:28:20.213Z,49.37
2024-03-28T14:30:20.194Z,48.25
2024-03-28T14:31:20.179Z,47.34
2024-03-28T14:32:20.144Z,47.64
2024-03-28T14:33:20.133Z,46.93
2024-03-28T14:34:23.134Z,46.72
2024-03-28T14:36:20.103Z,47.74
2024-03-28T14:37:20.099Z,46.93
2024-03-28T14:38:20.087Z,46.14
2024-03-28T14:39:20.092Z,44.81
2024-03-28T14:40:20.062Z,46.64
2024-03-28T14:41:20.058Z,45.53
2024-03-28T14:42:20.043Z,46.24
2024-03-28T14:43:20.048Z,46.75
2024-03-28T14:44:20.037Z,47.66
2024-03-28T14:46:20.002Z,45.83
2024-03-28T14:47:19.985Z,46.03
2024-03-28T14:48:20.041Z,45.94
2024-03-28T14:49:22.965Z,46.34
2024-03-28T14:50:19.960Z,46.44
2024-03-28T14:51:19.941Z,45.91
2024-03-28T14:52:19.940Z,44.92
2024-03-28T14:53:19.929Z,45.94
2024-03-28T14:54:19.909Z,46.67
2024-03-28T14:55:19.916Z,47.17
2024-03-28T14:56:19.900Z,47.46
2024-03-28T14:57:19.884Z,46.95
2024-03-28T14:58:24.150Z,46.75
2024-03-28T14:59:20.867Z,46.75
2024-03-28T15:00:19.848Z,46.14
2024-03-28T15:01:19.852Z,46.85
2024-03-28T15:02:19.855Z,46.42
2024-03-28T15:03:19.826Z,46.42
2024-03-28T15:04:30.340Z,46.62
2024-03-28T15:05:20.801Z,46.62
2024-03-28T15:06:19.790Z,46.01
2024-03-28T15:07:19.778Z,46.83
2024-03-28T15:08:19.768Z,46.42
2024-03-28T15:09:19.759Z,46.42
2024-03-28T15:10:19.741Z,48.05
2024-03-28T15:11:19.917Z,47.62
2024-03-28T15:12:19.729Z,45.91
2024-03-28T15:13:19.712Z,45.91
2024-03-28T15:14:19.702Z,45.91
2024-03-28T15:16:19.680Z,46.72
2024-03-28T15:17:19.673Z,45.50
2024-03-28T15:18:19.670Z,46.34
2024-03-28T15:19:22.646Z,46.95
2024-03-28T15:20:19.639Z,46.03
2024-03-28T15:21:19.639Z,47.05
2024-03-28T15:22:19.661Z,46.03
2024-03-28T15:23:19.613Z,46.55
2024-03-28T15:24:19.606Z,45.94
2024-03-28T15:25:19.580Z,46.01
2024-03-28T15:26:19.575Z,46.11
2024-03-28T15:27:19.571Z,46.32
2024-03-28T15:28:19.548Z,46.30
2024-03-28T15:29:19.549Z,45.68
2024-03-28T15:31:19.520Z,45.61
2024-03-28T15:32:19.508Z,46.32
2024-03-28T15:33:19.662Z,46.62
2024-03-28T15:34:22.497Z,45.40
2024-03-28T15:35:19.485Z,46.55
2024-03-28T15:36:19.484Z,47.97
2024-03-28T15:38:19.465Z,47.46
2024-03-28T15:39:19.451Z,46.95
2024-03-28T15:41:19.411Z,46.62
2024-03-28T15:43:19.411Z,46.93
2024-03-28T15:44:19.422Z,47.03
2024-03-28T15:45:19.426Z,46.62
2024-03-28T15:46:19.371Z,46.85
2024-03-28T15:47:19.353Z,47.34
2024-03-28T15:48:19.341Z,47.13
2024-03-28T15:49:22.523Z,46.93
2024-03-28T15:50:19.331Z,46.93
2024-03-28T15:51:19.331Z,46.83
2024-03-28T15:52:19.303Z,47.74
2024-03-28T15:53:19.291Z,47.85
2024-03-28T15:54:19.277Z,46.42
2024-03-28T15:56:19.256Z,46.42
2024-03-28T15:57:19.245Z,46.72
2024-03-28T15:58:19.239Z,45.40
2024-03-28T15:59:19.226Z,45.40
2024-03-28T16:00:19.406Z,45.30
2024-03-28T16:01:19.211Z,44.81
2024-03-28T16:02:19.191Z,45.94
2024-03-28T16:03:19.178Z,45.22
2024-03-28T16:04:22.172Z,45.73
2024-03-28T16:06:19.153Z,45.50
2024-03-28T16:07:19.142Z,45.71
2024-03-28T16:08:19.129Z,44.79
2024-03-28T16:09:19.118Z,44.92
2024-03-28T16:10:19.109Z,45.22
2024-03-28T16:11:19.111Z,45.63
2024-03-28T16:12:19.126Z,45.73
2024-03-28T16:14:19.080Z,45.22
2024-03-28T16:15:19.058Z,44.92
2024-03-28T16:16:19.043Z,45.01
2024-03-28T16:17:19.030Z,44.81
2024-03-28T16:18:19.033Z,43.79
2024-03-28T16:19:22.056Z,44.08
2024-03-28T16:21:18.994Z,43.23
2024-03-28T16:22:18.990Z,43.41
2024-03-28T16:24:19.926Z,42.02
2024-03-28T16:25:18.944Z,42.11
2024-03-28T16:26:18.941Z,41.68
2024-03-28T16:27:18.940Z,42.39
2024-03-28T16:29:18.922Z,42.05
2024-03-28T16:31:18.887Z,43.73
2024-03-28T16:32:19.037Z,43.85
2024-03-28T16:33:18.866Z,44.69
2024-03-28T16:34:21.869Z,45.91
2024-03-28T16:35:18.843Z,45.73
2024-03-28T16:36:18.836Z,43.90
2024-03-28T16:37:18.822Z,44.53
2024-03-28T16:38:18.807Z,44.53
2024-03-28T16:40:18.833Z,44.75
2024-03-28T16:41:18.785Z,44.63
2024-03-28T16:42:19.730Z,44.63
2024-03-28T16:43:19.715Z,44.83
2024-03-28T16:44:18.748Z,44.02
2024-03-28T16:45:18.733Z,44.93
2024-03-28T16:46:18.752Z,44.73
2024-03-28T16:47:18.727Z,45.45
2024-03-28T16:48:18.729Z,46.26
2024-03-28T16:49:21.711Z,45.26
2024-03-28T16:50:18.683Z,46.38
2024-03-28T16:51:18.666Z,47.20
2024-03-28T16:52:18.660Z,46.28
2024-03-28T16:53:18.648Z,45.59
2024-03-28T16:54:18.676Z,45.79
2024-03-28T16:55:18.631Z,45.79
2024-03-28T16:56:18.616Z,46.20
2024-03-28T16:57:18.604Z,45.49
2024-03-28T16:58:18.593Z,46.30
2024-03-28T16:59:18.599Z,47.42
2024-03-28T17:00:18.589Z,47.04
2024-03-28T17:01:18.578Z,47.24
2024-03-28T17:02:19.524Z,47.34
2024-03-28T17:04:21.527Z,47.86
2024-03-28T17:05:18.521Z,48.18
2024-03-28T17:06:18.520Z,48.28
2024-03-28T17:07:18.519Z,48.18
2024-03-28T17:08:18.502Z,48.49
2024-03-28T17:09:19.447Z,48.28
2024-03-28T17:10:18.493Z,47.67
2024-03-28T17:11:18.456Z,48.69
2024-03-28T17:12:18.448Z,49.71
2024-03-28T17:13:18.441Z,49.95
2024-03-28T17:15:18.409Z,50.15
2024-03-28T17:16:18.406Z,50.35
2024-03-28T17:17:18.390Z,50.96
2024-03-28T17:18:18.380Z,51.19
2024-03-28T17:19:21.371Z,50.99
2024-03-28T17:20:18.369Z,51.29
2024-03-28T17:21:18.371Z,51.40
2024-03-28T17:22:18.360Z,52.42
2024-03-28T17:23:18.333Z,52.65
2024-03-28T17:24:18.337Z,52.34
2024-03-28T17:25:18.347Z,53.06
2024-03-28T17:26:18.301Z,52.95
2024-03-28T17:27:19.692Z,53.57
2024-03-28T17:28:19.291Z,52.24
2024-03-28T17:29:18.593Z,52.55
2024-03-28T17:31:26.171Z,53.69
2024-03-28T17:33:18.218Z,55.54
2024-03-28T17:34:21.232Z,56.25
2024-03-28T17:36:18.191Z,58.02
2024-03-28T17:37:18.195Z,59.35
2024-03-28T17:38:18.178Z,59.99
2024-03-28T17:40:18.157Z,59.71
2024-03-28T17:41:18.138Z,61.25
2024-03-28T17:43:18.118Z,62.10
2024-03-28T17:44:18.122Z,62.40
2024-03-28T17:45:18.612Z,63.05
2024-03-28T17:46:19.058Z,65.71
2024-03-28T17:48:18.117Z,66.56
2024-03-28T17:49:21.055Z,65.88
2024-03-28T17:50:18.049Z,66.49
2024-03-28T17:51:18.031Z,67.00
2024-03-28T17:53:18.047Z,67.44
2024-03-28T17:54:18.007Z,66.93
2024-03-28T17:55:17.991Z,67.44
2024-03-28T17:56:18.005Z,67.24
2024-03-28T17:57:17.969Z,67.76
2024-03-28T17:59:17.975Z,68.88
2024-03-28T18:01:17.932Z,68.88
2024-03-28T18:03:17.918Z,69.43
2024-03-28T18:04:20.900Z,70.70
2024-03-28T18:06:17.873Z,71.96
2024-03-28T18:07:17.879Z,73.09
2024-03-28T18:09:17.843Z,73.54
2024-03-28T18:11:17.844Z,73.57
2024-03-28T18:12:17.825Z,74.19
2024-03-28T18:13:17.820Z,74.70
2024-03-28T18:14:17.786Z,75.22
2024-03-28T18:15:17.834Z,75.67
2024-03-28T18:16:17.763Z,75.97
2024-03-28T18:17:18.276Z,75.77
2024-03-28T18:19:20.794Z,77.35
2024-03-28T18:21:17.724Z,78.21
2024-03-28T18:22:17.756Z,78.72
2024-03-28T18:24:17.752Z,79.58
2024-03-28T18:26:17.707Z,80.00
2024-03-28T18:28:17.786Z,80.76
2024-03-28T18:29:17.679Z,80.96
2024-03-28T18:31:17.690Z,80.55
2024-03-28T18:32:18.638Z,80.44
2024-03-28T18:33:17.656Z,80.55
2024-03-28T18:34:20.632Z,80.69
2024-03-28T18:35:17.625Z,81.51
2024-03-28T18:36:17.610Z,81.82
2024-03-28T18:38:18.542Z,82.03
2024-03-28T18:39:17.579Z,82.59
2024-03-28T18:40:17.562Z,82.69
2024-03-28T18:41:17.549Z,82.79
2024-03-28T18:42:17.565Z,82.89
2024-03-28T18:43:17.527Z,82.93
2024-03-28T18:44:18.506Z,83.14
2024-03-28T18:45:17.533Z,83.45
2024-03-28T18:46:17.515Z,83.86
2024-03-28T18:47:17.498Z,84.11
2024-03-28T18:49:20.936Z,85.08
2024-03-28T18:50:17.494Z,85.70
2024-03-28T18:51:17.455Z,85.84
2024-03-28T18:52:17.437Z,86.05
2024-03-28T18:53:17.425Z,86.05
2024-03-28T18:54:17.422Z,86.05
2024-03-28T18:55:17.408Z,86.05
2024-03-28T18:56:19.356Z,86.05
2024-03-28T18:57:18.355Z,86.05
2024-03-28T18:58:17.370Z,85.74
2024-03-28T18:59:17.359Z,86.25
2024-03-28T19:00:17.542Z,86.40
2024-03-28T19:01:17.346Z,86.91
2024-03-28T19:02:18.287Z,86.60
2024-03-28T19:04:21.270Z,87.23
2024-03-28T19:05:17.313Z,87.12
2024-03-28T19:06:17.291Z,87.37
2024-03-28T19:07:17.273Z,87.37
2024-03-28T19:08:17.268Z,87.47
2024-03-28T19:09:17.265Z,87.68
2024-03-28T19:10:17.275Z,87.88
2024-03-28T19:11:17.286Z,88.09
2024-03-28T19:12:17.230Z,88.20
2024-03-28T19:13:17.210Z,87.57
2024-03-28T19:14:17.210Z,87.68
2024-03-28T19:15:17.196Z,87.72
2024-03-28T19:16:17.184Z,87.88
2024-03-28T19:17:17.179Z,87.68
2024-03-28T19:18:17.172Z,87.57
2024-03-28T19:19:20.150Z,87.78
2024-03-28T19:21:17.140Z,87.78
2024-03-28T19:22:17.152Z,87.57
2024-03-28T19:23:17.117Z,87.57
2024-03-28T19:24:18.064Z,87.99
2024-03-28T19:25:17.091Z,88.20
2024-03-28T19:26:17.099Z,88.20
2024-03-28T19:27:17.091Z,88.24
2024-03-28T19:28:17.082Z,88.45
2024-03-28T19:29:17.072Z,88.65
2024-03-28T19:30:17.062Z,88.59
2024-03-28T19:31:17.034Z,88.45
2024-03-28T19:32:17.013Z,88.90
2024-03-28T19:33:17.028Z,89.11
2024-03-28T19:34:20.007Z,88.90
2024-03-28T19:35:16.989Z,89.11
2024-03-28T19:36:16.987Z,89.11
2024-03-28T19:37:17.006Z,88.79
2024-03-28T19:38:16.964Z,89.00
2024-03-28T19:39:16.977Z,89.11
2024-03-28T19:40:20.624Z,88.79
2024-03-28T19:41:16.929Z,88.39
2024-03-28T19:42:16.928Z,88.13
2024-03-28T19:44:16.904Z,87.41
2024-03-28T19:45:16.889Z,87.10
2024-03-28T19:46:16.864Z,86.99
2024-03-28T19:47:16.870Z,87.41
2024-03-28T19:48:16.850Z,87.72
2024-03-28T19:49:20.803Z,88.03
2024-03-28T19:50:16.835Z,88.59
2024-03-28T19:51:16.848Z,88.90
2024-03-28T19:52:16.805Z,89.11
2024-03-28T19:54:22.549Z,89.04
2024-03-28T19:55:17.775Z,89.04
2024-03-28T19:56:16.772Z,88.94
2024-03-28T19:57:16.759Z,88.69
2024-03-28T19:58:16.747Z,88.59
2024-03-28T19:59:16.753Z,88.28
2024-03-28T20:00:16.731Z,88.07
2024-03-28T20:01:18.335Z,88.07
2024-03-28T20:02:16.715Z,88.07
2024-03-28T20:03:16.704Z,87.97
2024-03-28T20:04:19.686Z,88.18
2024-03-28T20:05:16.682Z,88.69
2024-03-28T20:06:16.679Z,89.15
2024-03-28T20:07:16.821Z,89.25
2024-03-28T20:08:16.666Z,89.15
2024-03-28T20:09:16.644Z,89.25